sensor_id;sensor_type;location;lat;lon;timestamp;temperature;humidity
45096;DHT22;30858;51.108;8.068;2022-07-29T00:01:19;17.40;99.90
45096;DHT22;30858;51.108;8.068;2022-07-29T00:03:45;17.40;99.90
45096;DHT22;30858;51.108;8.068;2022-07-29T00:06:11;17.40;99.90
45096;DHT22;30858;51.108;8.068;2022-07-29T00:08:37;17.40;99.90
45096;DHT22;30858;51.108;8.068;2022-07-29T00:11:02;17.40;99.90
45096;DHT22;30858;51.108;8.068;2022-07-29T00:13:28;17.40;99.90
45096;DHT22;30858;51.108;8.068;2022-07-29T00:15:54;17.30;99.90
45096;DHT22;30858;51.108;8.068;2022-07-29T00:18:20;17.30;99.90
45096;DHT22;30858;51.108;8.068;2022-07-29T00:20:45;17.20;99.90
45096;DHT22;30858;51.108;8.068;2022-07-29T00:23:11;17.10;99.90
45096;DHT22;30858;51.108;8.068;2022-07-29T00:25:36;17.10;99.90
45096;DHT22;30858;51.108;8.068;2022-07-29T00:28:02;17.10;99.90
45096;DHT22;30858;51.108;8.068;2022-07-29T00:30:27;17.10;99.90
45096;DHT22;30858;51.108;8.068;2022-07-29T00:32:53;17.10;99.90
45096;DHT22;30858;51.108;8.068;2022-07-29T00:35:18;17.00;99.90
45096;DHT22;30858;51.108;8.068;2022-07-29T00:38:18;17.10;99.90
45096;DHT22;30858;51.108;8.068;2022-07-29T00:40:44;17.00;99.90
45096;DHT22;30858;51.108;8.068;2022-07-29T00:43:10;16.90;99.90
45096;DHT22;30858;51.108;8.068;2022-07-29T00:45:36;16.90;99.90
45096;DHT22;30858;51.108;8.068;2022-07-29T00:48:02;16.90;99.90
45096;DHT22;30858;51.108;8.068;2022-07-29T00:50:30;16.90;99.90
45096;DHT22;30858;51.108;8.068;2022-07-29T00:52:56;17.00;99.90
45096;DHT22;30858;51.108;8.068;2022-07-29T00:55:21;17.00;99.90
45096;DHT22;30858;51.108;8.068;2022-07-29T00:57:47;17.00;99.90
45096;DHT22;30858;51.108;8.068;2022-07-29T01:00:20;17.00;99.90
45096;DHT22;30858;51.108;8.068;2022-07-29T01:02:46;17.00;99.90
45096;DHT22;30858;51.108;8.068;2022-07-29T01:05:18;17.00;99.90
45096;DHT22;30858;51.108;8.068;2022-07-29T01:07:45;17.00;99.90
45096;DHT22;30858;51.108;8.068;2022-07-29T01:10:12;17.00;99.90
45096;DHT22;30858;51.108;8.068;2022-07-29T01:12:38;17.00;99.90
45096;DHT22;30858;51.108;8.068;2022-07-29T01:15:07;16.90;99.90
45096;DHT22;30858;51.108;8.068;2022-07-29T01:17:36;16.90;99.90
45096;DHT22;30858;51.108;8.068;2022-07-29T01:25:45;17.30;99.90
45096;DHT22;30858;51.108;8.068;2022-07-29T01:30:42;17.20;99.90
45096;DHT22;30858;51.108;8.068;2022-07-29T01:33:13;17.20;99.90
45096;DHT22;30858;51.108;8.068;2022-07-29T01:36:01;17.40;99.90
45096;DHT22;30858;51.108;8.068;2022-07-29T01:38:30;17.60;99.90
45096;DHT22;30858;51.108;8.068;2022-07-29T01:41:05;17.70;99.90
45096;DHT22;30858;51.108;8.068;2022-07-29T01:43:41;17.80;99.90
45096;DHT22;30858;51.108;8.068;2022-07-29T01:46:13;17.80;99.90
45096;DHT22;30858;51.108;8.068;2022-07-29T01:48:47;17.80;99.90
45096;DHT22;30858;51.108;8.068;2022-07-29T01:51:20;17.90;99.90
45096;DHT22;30858;51.108;8.068;2022-07-29T01:54:05;18.00;99.90
45096;DHT22;30858;51.108;8.068;2022-07-29T01:56:32;18.10;99.90
45096;DHT22;30858;51.108;8.068;2022-07-29T01:58:59;18.10;99.90
45096;DHT22;30858;51.108;8.068;2022-07-29T02:01:27;18.10;99.90
45096;DHT22;30858;51.108;8.068;2022-07-29T02:03:54;18.00;99.90
45096;DHT22;30858;51.108;8.068;2022-07-29T02:06:22;18.00;99.90
45096;DHT22;30858;51.108;8.068;2022-07-29T02:08:49;18.00;99.90
45096;DHT22;30858;51.108;8.068;2022-07-29T02:11:17;18.00;99.90
45096;DHT22;30858;51.108;8.068;2022-07-29T02:13:43;17.90;99.90
45096;DHT22;30858;51.108;8.068;2022-07-29T02:16:09;17.90;99.90
45096;DHT22;30858;51.108;8.068;2022-07-29T02:18:37;17.90;99.90
45096;DHT22;30858;51.108;8.068;2022-07-29T02:21:04;17.80;99.90
45096;DHT22;30858;51.108;8.068;2022-07-29T02:23:31;17.80;99.90
45096;DHT22;30858;51.108;8.068;2022-07-29T02:25:59;17.80;99.90
45096;DHT22;30858;51.108;8.068;2022-07-29T02:28:27;17.70;99.90
45096;DHT22;30858;51.108;8.068;2022-07-29T02:30:55;17.70;99.90
45096;DHT22;30858;51.108;8.068;2022-07-29T02:33:23;17.70;99.90
45096;DHT22;30858;51.108;8.068;2022-07-29T02:35:50;17.70;99.90
45096;DHT22;30858;51.108;8.068;2022-07-29T02:38:16;17.70;99.90
45096;DHT22;30858;51.108;8.068;2022-07-29T02:41:11;17.60;99.90
45096;DHT22;30858;51.108;8.068;2022-07-29T02:43:38;17.60;99.90
45096;DHT22;30858;51.108;8.068;2022-07-29T02:46:08;17.70;99.90
45096;DHT22;30858;51.108;8.068;2022-07-29T02:48:38;17.60;99.90
45096;DHT22;30858;51.108;8.068;2022-07-29T02:51:13;17.60;99.90
45096;DHT22;30858;51.108;8.068;2022-07-29T02:53:48;17.50;99.90
45096;DHT22;30858;51.108;8.068;2022-07-29T02:56:16;17.50;99.90
45096;DHT22;30858;51.108;8.068;2022-07-29T02:58:52;17.50;99.90
45096;DHT22;30858;51.108;8.068;2022-07-29T03:01:24;17.50;99.90
45096;DHT22;30858;51.108;8.068;2022-07-29T03:06:21;17.50;99.90
45096;DHT22;30858;51.108;8.068;2022-07-29T03:08:48;17.50;99.90
45096;DHT22;30858;51.108;8.068;2022-07-29T03:11:14;17.40;99.90
45096;DHT22;30858;51.108;8.068;2022-07-29T03:13:41;17.40;99.90
45096;DHT22;30858;51.108;8.068;2022-07-29T03:16:08;17.30;99.90
45096;DHT22;30858;51.108;8.068;2022-07-29T03:18:35;17.50;99.90
45096;DHT22;30858;51.108;8.068;2022-07-29T03:21:03;17.50;99.90
45096;DHT22;30858;51.108;8.068;2022-07-29T03:23:28;17.50;99.90
45096;DHT22;30858;51.108;8.068;2022-07-29T03:25:55;17.60;99.90
45096;DHT22;30858;51.108;8.068;2022-07-29T03:28:21;17.60;99.90
45096;DHT22;30858;51.108;8.068;2022-07-29T03:30:47;17.50;99.90
45096;DHT22;30858;51.108;8.068;2022-07-29T03:33:13;17.50;99.90
45096;DHT22;30858;51.108;8.068;2022-07-29T03:35:38;17.50;99.90
45096;DHT22;30858;51.108;8.068;2022-07-29T03:38:04;17.50;99.90
45096;DHT22;30858;51.108;8.068;2022-07-29T03:41:07;17.40;99.90
45096;DHT22;30858;51.108;8.068;2022-07-29T03:43:36;17.50;99.90
45096;DHT22;30858;51.108;8.068;2022-07-29T03:46:05;17.40;99.90
45096;DHT22;30858;51.108;8.068;2022-07-29T03:48:34;17.30;99.90
45096;DHT22;30858;51.108;8.068;2022-07-29T03:51:02;17.20;99.90
45096;DHT22;30858;51.108;8.068;2022-07-29T03:53:28;17.10;99.90
45096;DHT22;30858;51.108;8.068;2022-07-29T03:55:59;17.10;99.90
45096;DHT22;30858;51.108;8.068;2022-07-29T03:58:26;17.10;99.90
45096;DHT22;30858;51.108;8.068;2022-07-29T04:00:52;17.10;99.90
45096;DHT22;30858;51.108;8.068;2022-07-29T04:03:19;17.10;99.90
45096;DHT22;30858;51.108;8.068;2022-07-29T04:06:00;17.00;99.90
45096;DHT22;30858;51.108;8.068;2022-07-29T04:08:26;17.00;99.90
45096;DHT22;30858;51.108;8.068;2022-07-29T04:10:52;17.00;99.90
45096;DHT22;30858;51.108;8.068;2022-07-29T04:13:18;17.10;99.90
45096;DHT22;30858;51.108;8.068;2022-07-29T04:15:44;17.10;99.90
45096;DHT22;30858;51.108;8.068;2022-07-29T04:18:10;17.10;99.90
45096;DHT22;30858;51.108;8.068;2022-07-29T04:20:35;17.00;99.90
45096;DHT22;30858;51.108;8.068;2022-07-29T04:23:01;17.00;99.90
45096;DHT22;30858;51.108;8.068;2022-07-29T04:25:26;16.90;99.90
45096;DHT22;30858;51.108;8.068;2022-07-29T04:27:52;16.80;99.90
45096;DHT22;30858;51.108;8.068;2022-07-29T04:30:27;16.80;99.90
45096;DHT22;30858;51.108;8.068;2022-07-29T04:32:52;16.80;99.90
45096;DHT22;30858;51.108;8.068;2022-07-29T04:35:19;16.80;99.90
45096;DHT22;30858;51.108;8.068;2022-07-29T04:37:44;16.80;99.90
45096;DHT22;30858;51.108;8.068;2022-07-29T04:40:11;16.70;99.90
45096;DHT22;30858;51.108;8.068;2022-07-29T04:42:37;16.70;99.90
45096;DHT22;30858;51.108;8.068;2022-07-29T04:45:03;16.60;99.90
45096;DHT22;30858;51.108;8.068;2022-07-29T04:47:29;16.60;99.90
45096;DHT22;30858;51.108;8.068;2022-07-29T04:49:54;16.60;99.90
45096;DHT22;30858;51.108;8.068;2022-07-29T04:52:21;16.50;99.90
45096;DHT22;30858;51.108;8.068;2022-07-29T04:54:47;16.50;99.90
45096;DHT22;30858;51.108;8.068;2022-07-29T04:57:13;16.60;99.90
45096;DHT22;30858;51.108;8.068;2022-07-29T04:59:38;16.60;99.90
45096;DHT22;30858;51.108;8.068;2022-07-29T05:02:04;16.60;99.90
45096;DHT22;30858;51.108;8.068;2022-07-29T05:04:29;16.70;99.90
45096;DHT22;30858;51.108;8.068;2022-07-29T05:06:55;16.80;99.90
45096;DHT22;30858;51.108;8.068;2022-07-29T05:09:20;16.90;99.90
45096;DHT22;30858;51.108;8.068;2022-07-29T05:11:46;16.90;99.90
45096;DHT22;30858;51.108;8.068;2022-07-29T05:14:11;17.00;99.90
45096;DHT22;30858;51.108;8.068;2022-07-29T05:16:37;17.10;99.90
45096;DHT22;30858;51.108;8.068;2022-07-29T05:19:04;17.20;99.90
45096;DHT22;30858;51.108;8.068;2022-07-29T05:21:30;17.30;99.90
45096;DHT22;30858;51.108;8.068;2022-07-29T05:23:55;17.40;99.90
45096;DHT22;30858;51.108;8.068;2022-07-29T05:26:21;17.50;99.90
45096;DHT22;30858;51.108;8.068;2022-07-29T05:28:46;17.60;99.90
45096;DHT22;30858;51.108;8.068;2022-07-29T05:31:12;17.70;99.90
45096;DHT22;30858;51.108;8.068;2022-07-29T05:33:40;17.90;99.90
45096;DHT22;30858;51.108;8.068;2022-07-29T05:36:06;18.00;99.90
45096;DHT22;30858;51.108;8.068;2022-07-29T05:38:32;18.00;99.90
45096;DHT22;30858;51.108;8.068;2022-07-29T05:40:58;18.10;99.90
45096;DHT22;30858;51.108;8.068;2022-07-29T05:43:25;18.10;99.90
45096;DHT22;30858;51.108;8.068;2022-07-29T05:45:51;18.10;99.90
45096;DHT22;30858;51.108;8.068;2022-07-29T05:48:16;18.10;99.90
45096;DHT22;30858;51.108;8.068;2022-07-29T05:50:42;18.20;99.90
45096;DHT22;30858;51.108;8.068;2022-07-29T05:53:07;18.20;99.90
45096;DHT22;30858;51.108;8.068;2022-07-29T05:55:33;18.20;99.90
45096;DHT22;30858;51.108;8.068;2022-07-29T05:57:58;18.30;99.90
45096;DHT22;30858;51.108;8.068;2022-07-29T06:00:24;18.30;99.90
45096;DHT22;30858;51.108;8.068;2022-07-29T06:02:49;18.30;99.90
45096;DHT22;30858;51.108;8.068;2022-07-29T06:05:15;18.40;99.90
45096;DHT22;30858;51.108;8.068;2022-07-29T06:07:41;18.40;99.90
45096;DHT22;30858;51.108;8.068;2022-07-29T06:10:07;18.50;99.90
45096;DHT22;30858;51.108;8.068;2022-07-29T06:12:33;18.60;99.90
45096;DHT22;30858;51.108;8.068;2022-07-29T06:14:58;18.80;99.90
45096;DHT22;30858;51.108;8.068;2022-07-29T06:17:24;18.90;99.90
45096;DHT22;30858;51.108;8.068;2022-07-29T06:19:50;19.00;99.90
45096;DHT22;30858;51.108;8.068;2022-07-29T06:22:16;19.10;99.90
45096;DHT22;30858;51.108;8.068;2022-07-29T06:24:43;19.20;99.90
45096;DHT22;30858;51.108;8.068;2022-07-29T06:27:12;19.30;99.90
45096;DHT22;30858;51.108;8.068;2022-07-29T06:29:38;19.50;99.90
45096;DHT22;30858;51.108;8.068;2022-07-29T06:32:04;19.70;99.90
45096;DHT22;30858;51.108;8.068;2022-07-29T06:34:30;19.80;99.90
45096;DHT22;30858;51.108;8.068;2022-07-29T06:36:55;19.90;99.90
45096;DHT22;30858;51.108;8.068;2022-07-29T06:39:21;20.00;99.90
45096;DHT22;30858;51.108;8.068;2022-07-29T06:41:47;20.10;99.90
45096;DHT22;30858;51.108;8.068;2022-07-29T06:44:16;20.10;99.90
45096;DHT22;30858;51.108;8.068;2022-07-29T06:46:43;20.20;99.90
45096;DHT22;30858;51.108;8.068;2022-07-29T06:49:09;20.20;99.90
45096;DHT22;30858;51.108;8.068;2022-07-29T06:51:35;20.20;99.90
45096;DHT22;30858;51.108;8.068;2022-07-29T06:54:01;20.20;99.90
45096;DHT22;30858;51.108;8.068;2022-07-29T06:56:27;20.20;99.90
45096;DHT22;30858;51.108;8.068;2022-07-29T06:58:53;20.30;99.90
45096;DHT22;30858;51.108;8.068;2022-07-29T07:01:18;20.30;99.90
45096;DHT22;30858;51.108;8.068;2022-07-29T07:03:44;20.30;99.90
45096;DHT22;30858;51.108;8.068;2022-07-29T07:06:10;20.40;99.90
45096;DHT22;30858;51.108;8.068;2022-07-29T07:08:36;20.50;99.90
45096;DHT22;30858;51.108;8.068;2022-07-29T07:11:01;20.40;99.90
45096;DHT22;30858;51.108;8.068;2022-07-29T07:13:27;20.40;99.90
45096;DHT22;30858;51.108;8.068;2022-07-29T07:15:53;20.50;99.90
45096;DHT22;30858;51.108;8.068;2022-07-29T07:18:19;20.50;99.90
45096;DHT22;30858;51.108;8.068;2022-07-29T07:20:44;20.50;99.90
45096;DHT22;30858;51.108;8.068;2022-07-29T07:23:10;20.30;99.90
45096;DHT22;30858;51.108;8.068;2022-07-29T07:25:36;20.30;99.90
45096;DHT22;30858;51.108;8.068;2022-07-29T07:28:02;20.40;99.90
45096;DHT22;30858;51.108;8.068;2022-07-29T07:30:28;20.40;99.90
45096;DHT22;30858;51.108;8.068;2022-07-29T07:32:54;20.50;99.90
45096;DHT22;30858;51.108;8.068;2022-07-29T07:35:20;20.80;99.90
45096;DHT22;30858;51.108;8.068;2022-07-29T07:37:46;20.90;99.90
45096;DHT22;30858;51.108;8.068;2022-07-29T07:40:12;21.00;99.90
45096;DHT22;30858;51.108;8.068;2022-07-29T07:42:39;21.20;99.90
45096;DHT22;30858;51.108;8.068;2022-07-29T07:45:05;21.10;99.90
45096;DHT22;30858;51.108;8.068;2022-07-29T07:47:32;21.20;99.90
45096;DHT22;30858;51.108;8.068;2022-07-29T07:49:57;21.30;99.90
45096;DHT22;30858;51.108;8.068;2022-07-29T07:52:23;21.40;99.90
45096;DHT22;30858;51.108;8.068;2022-07-29T07:54:49;21.40;99.90
45096;DHT22;30858;51.108;8.068;2022-07-29T07:57:15;21.40;99.90
45096;DHT22;30858;51.108;8.068;2022-07-29T07:59:41;21.30;99.90
45096;DHT22;30858;51.108;8.068;2022-07-29T08:02:07;21.40;99.90
45096;DHT22;30858;51.108;8.068;2022-07-29T08:04:33;21.40;99.90
45096;DHT22;30858;51.108;8.068;2022-07-29T08:07:00;21.30;99.90
45096;DHT22;30858;51.108;8.068;2022-07-29T08:09:28;21.50;99.90
45096;DHT22;30858;51.108;8.068;2022-07-29T08:11:54;21.50;99.90
45096;DHT22;30858;51.108;8.068;2022-07-29T08:14:20;21.60;99.90
45096;DHT22;30858;51.108;8.068;2022-07-29T08:16:46;21.60;99.90
45096;DHT22;30858;51.108;8.068;2022-07-29T08:19:11;21.70;99.90
45096;DHT22;30858;51.108;8.068;2022-07-29T08:21:37;21.90;99.90
45096;DHT22;30858;51.108;8.068;2022-07-29T08:24:03;22.10;99.90
45096;DHT22;30858;51.108;8.068;2022-07-29T08:26:48;22.20;99.90
45096;DHT22;30858;51.108;8.068;2022-07-29T08:29:13;22.20;99.90
45096;DHT22;30858;51.108;8.068;2022-07-29T08:31:39;22.10;99.90
45096;DHT22;30858;51.108;8.068;2022-07-29T08:34:05;22.00;99.90
45096;DHT22;30858;51.108;8.068;2022-07-29T08:36:31;22.10;99.90
45096;DHT22;30858;51.108;8.068;2022-07-29T08:38:57;22.40;99.90
45096;DHT22;30858;51.108;8.068;2022-07-29T08:41:23;22.60;99.90
45096;DHT22;30858;51.108;8.068;2022-07-29T08:43:49;22.60;99.90
45096;DHT22;30858;51.108;8.068;2022-07-29T08:46:15;22.60;99.90
45096;DHT22;30858;51.108;8.068;2022-07-29T08:51:13;23.50;99.90
45096;DHT22;30858;51.108;8.068;2022-07-29T08:53:41;24.10;99.90
45096;DHT22;30858;51.108;8.068;2022-07-29T08:56:07;24.20;99.90
45096;DHT22;30858;51.108;8.068;2022-07-29T08:58:34;24.50;99.90
45096;DHT22;30858;51.108;8.068;2022-07-29T09:01:01;25.00;99.90
45096;DHT22;30858;51.108;8.068;2022-07-29T09:03:30;25.60;99.90
45096;DHT22;30858;51.108;8.068;2022-07-29T09:05:58;25.70;99.90
45096;DHT22;30858;51.108;8.068;2022-07-29T09:08:24;25.50;99.90
45096;DHT22;30858;51.108;8.068;2022-07-29T09:10:50;26.20;99.90
45096;DHT22;30858;51.108;8.068;2022-07-29T09:13:17;26.50;99.90
45096;DHT22;30858;51.108;8.068;2022-07-29T09:15:43;26.80;99.90
45096;DHT22;30858;51.108;8.068;2022-07-29T09:18:09;26.40;99.90
45096;DHT22;30858;51.108;8.068;2022-07-29T09:20:34;27.00;99.90
45096;DHT22;30858;51.108;8.068;2022-07-29T09:23:18;27.20;99.40
45096;DHT22;30858;51.108;8.068;2022-07-29T09:25:44;27.10;99.30
45096;DHT22;30858;51.108;8.068;2022-07-29T09:28:12;26.30;99.30
45096;DHT22;30858;51.108;8.068;2022-07-29T09:30:57;26.60;99.90
45096;DHT22;30858;51.108;8.068;2022-07-29T09:33:24;26.40;99.50
45096;DHT22;30858;51.108;8.068;2022-07-29T09:38:25;26.60;99.20
45096;DHT22;30858;51.108;8.068;2022-07-29T09:40:59;26.60;99.90
45096;DHT22;30858;51.108;8.068;2022-07-29T09:43:25;26.90;99.30
45096;DHT22;30858;51.108;8.068;2022-07-29T09:45:50;27.30;98.60
45096;DHT22;30858;51.108;8.068;2022-07-29T09:48:18;26.80;99.30
45096;DHT22;30858;51.108;8.068;2022-07-29T09:50:46;27.10;98.60
45096;DHT22;30858;51.108;8.068;2022-07-29T09:53:33;27.60;98.90
45096;DHT22;30858;51.108;8.068;2022-07-29T09:55:58;28.30;97.90
45096;DHT22;30858;51.108;8.068;2022-07-29T09:58:24;28.30;98.30
45096;DHT22;30858;51.108;8.068;2022-07-29T10:00:52;28.40;96.70
45096;DHT22;30858;51.108;8.068;2022-07-29T10:03:18;29.00;98.00
45096;DHT22;30858;51.108;8.068;2022-07-29T10:05:45;28.70;96.40
45096;DHT22;30858;51.108;8.068;2022-07-29T10:08:11;28.60;95.90
45096;DHT22;30858;51.108;8.068;2022-07-29T10:10:39;27.90;95.90
45096;DHT22;30858;51.108;8.068;2022-07-29T10:13:11;27.10;96.60
45096;DHT22;30858;51.108;8.068;2022-07-29T10:15:40;26.90;97.40
45096;DHT22;30858;51.108;8.068;2022-07-29T10:18:11;27.00;97.80
45096;DHT22;30858;51.108;8.068;2022-07-29T10:20:38;27.80;97.10
45096;DHT22;30858;51.108;8.068;2022-07-29T10:23:04;27.90;97.30
45096;DHT22;30858;51.108;8.068;2022-07-29T10:25:30;27.90;97.20
45096;DHT22;30858;51.108;8.068;2022-07-29T10:27:56;28.70;96.30
45096;DHT22;30858;51.108;8.068;2022-07-29T10:30:22;29.30;94.80
45096;DHT22;30858;51.108;8.068;2022-07-29T10:36:07;29.10;94.50
45096;DHT22;30858;51.108;8.068;2022-07-29T10:44:24;28.10;94.20
45096;DHT22;30858;51.108;8.068;2022-07-29T10:46:51;28.40;95.40
45096;DHT22;30858;51.108;8.068;2022-07-29T10:49:21;29.00;94.40
45096;DHT22;30858;51.108;8.068;2022-07-29T10:51:53;28.70;93.70
45096;DHT22;30858;51.108;8.068;2022-07-29T10:59:37;29.30;95.00
45096;DHT22;30858;51.108;8.068;2022-07-29T11:07:23;29.60;93.20
45096;DHT22;30858;51.108;8.068;2022-07-29T11:15:12;29.80;92.70
45096;DHT22;30858;51.108;8.068;2022-07-29T11:23:00;29.20;92.40
45096;DHT22;30858;51.108;8.068;2022-07-29T11:25:26;28.90;92.10
45096;DHT22;30858;51.108;8.068;2022-07-29T11:27:53;28.80;93.80
45096;DHT22;30858;51.108;8.068;2022-07-29T11:30:19;28.70;93.10
45096;DHT22;30858;51.108;8.068;2022-07-29T11:32:45;28.90;92.60
45096;DHT22;30858;51.108;8.068;2022-07-29T11:35:23;29.10;93.10
45096;DHT22;30858;51.108;8.068;2022-07-29T11:38:24;28.90;93.20
45096;DHT22;30858;51.108;8.068;2022-07-29T11:41:24;28.90;93.30
45096;DHT22;30858;51.108;8.068;2022-07-29T11:43:52;28.10;93.60
45096;DHT22;30858;51.108;8.068;2022-07-29T11:46:46;28.50;93.10
45096;DHT22;30858;51.108;8.068;2022-07-29T11:49:22;29.40;93.30
45096;DHT22;30858;51.108;8.068;2022-07-29T11:51:53;29.90;92.90
45096;DHT22;30858;51.108;8.068;2022-07-29T11:54:24;30.20;91.80
45096;DHT22;30858;51.108;8.068;2022-07-29T11:56:51;30.40;92.10
45096;DHT22;30858;51.108;8.068;2022-07-29T11:59:17;30.90;91.50
45096;DHT22;30858;51.108;8.068;2022-07-29T12:01:57;29.80;91.40
45096;DHT22;30858;51.108;8.068;2022-07-29T12:04:24;30.20;92.40
45096;DHT22;30858;51.108;8.068;2022-07-29T12:06:50;31.10;91.20
45096;DHT22;30858;51.108;8.068;2022-07-29T12:09:17;30.80;90.40
45096;DHT22;30858;51.108;8.068;2022-07-29T12:11:43;30.30;90.70
45096;DHT22;30858;51.108;8.068;2022-07-29T12:14:08;30.10;90.70
45096;DHT22;30858;51.108;8.068;2022-07-29T12:16:35;30.00;90.40
45096;DHT22;30858;51.108;8.068;2022-07-29T12:19:04;30.10;91.20
45096;DHT22;30858;51.108;8.068;2022-07-29T12:22:00;30.10;90.70
45096;DHT22;30858;51.108;8.068;2022-07-29T12:24:26;30.50;89.80
45096;DHT22;30858;51.108;8.068;2022-07-29T12:26:53;30.90;89.10
45096;DHT22;30858;51.108;8.068;2022-07-29T12:29:19;29.80;87.30
45096;DHT22;30858;51.108;8.068;2022-07-29T12:31:45;30.40;89.40
45096;DHT22;30858;51.108;8.068;2022-07-29T12:34:15;30.90;87.90
45096;DHT22;30858;51.108;8.068;2022-07-29T12:36:42;29.80;88.20
45096;DHT22;30858;51.108;8.068;2022-07-29T12:39:08;29.00;88.60
45096;DHT22;30858;51.108;8.068;2022-07-29T12:41:34;28.90;88.80
45096;DHT22;30858;51.108;8.068;2022-07-29T12:44:00;29.80;89.40
45096;DHT22;30858;51.108;8.068;2022-07-29T12:46:26;30.70;88.90
45096;DHT22;30858;51.108;8.068;2022-07-29T12:48:53;30.80;89.50
45096;DHT22;30858;51.108;8.068;2022-07-29T12:51:32;28.40;89.30
45096;DHT22;30858;51.108;8.068;2022-07-29T12:54:10;28.50;90.40
45096;DHT22;30858;51.108;8.068;2022-07-29T12:56:43;28.20;91.40
45096;DHT22;30858;51.108;8.068;2022-07-29T12:59:20;28.60;90.60
45096;DHT22;30858;51.108;8.068;2022-07-29T13:01:50;28.60;91.80
45096;DHT22;30858;51.108;8.068;2022-07-29T13:04:33;28.70;91.60
45096;DHT22;30858;51.108;8.068;2022-07-29T13:07:02;28.40;91.30
45096;DHT22;30858;51.108;8.068;2022-07-29T13:10:16;28.50;90.70
45096;DHT22;30858;51.108;8.068;2022-07-29T13:13:05;28.20;90.80
45096;DHT22;30858;51.108;8.068;2022-07-29T13:15:31;27.60;91.00
45096;DHT22;30858;51.108;8.068;2022-07-29T13:17:57;27.80;91.70
45096;DHT22;30858;51.108;8.068;2022-07-29T13:20:28;27.70;91.20
45096;DHT22;30858;51.108;8.068;2022-07-29T13:22:56;27.50;91.40
45096;DHT22;30858;51.108;8.068;2022-07-29T13:25:30;27.30;91.30
45096;DHT22;30858;51.108;8.068;2022-07-29T13:27:57;27.50;91.80
45096;DHT22;30858;51.108;8.068;2022-07-29T13:30:23;27.80;92.10
45096;DHT22;30858;51.108;8.068;2022-07-29T13:32:49;27.80;92.00
45096;DHT22;30858;51.108;8.068;2022-07-29T13:35:15;27.90;92.10
45096;DHT22;30858;51.108;8.068;2022-07-29T13:37:41;27.80;92.50
45096;DHT22;30858;51.108;8.068;2022-07-29T13:40:08;27.10;94.30
45096;DHT22;30858;51.108;8.068;2022-07-29T13:42:34;26.60;97.00
45096;DHT22;30858;51.108;8.068;2022-07-29T13:45:00;26.90;98.60
45096;DHT22;30858;51.108;8.068;2022-07-29T13:47:26;27.00;97.50
45096;DHT22;30858;51.108;8.068;2022-07-29T13:49:52;26.50;99.90
45096;DHT22;30858;51.108;8.068;2022-07-29T13:52:19;26.70;98.50
45096;DHT22;30858;51.108;8.068;2022-07-29T13:54:44;26.70;97.40
45096;DHT22;30858;51.108;8.068;2022-07-29T13:57:10;26.10;98.50
45096;DHT22;30858;51.108;8.068;2022-07-29T13:59:36;26.30;98.50
45096;DHT22;30858;51.108;8.068;2022-07-29T14:02:02;26.10;97.40
45096;DHT22;30858;51.108;8.068;2022-07-29T14:04:28;26.10;97.10
45096;DHT22;30858;51.108;8.068;2022-07-29T14:06:53;26.10;97.80
45096;DHT22;30858;51.108;8.068;2022-07-29T14:09:19;26.20;97.00
45096;DHT22;30858;51.108;8.068;2022-07-29T14:11:45;26.20;96.70
45096;DHT22;30858;51.108;8.068;2022-07-29T14:14:11;26.30;96.80
45096;DHT22;30858;51.108;8.068;2022-07-29T14:16:37;26.40;96.50
45096;DHT22;30858;51.108;8.068;2022-07-29T14:19:03;26.50;96.40
45096;DHT22;30858;51.108;8.068;2022-07-29T14:21:28;26.40;96.80
45096;DHT22;30858;51.108;8.068;2022-07-29T14:23:54;26.80;96.90
45096;DHT22;30858;51.108;8.068;2022-07-29T14:26:20;27.30;96.00
45096;DHT22;30858;51.108;8.068;2022-07-29T14:28:46;27.40;95.70
45096;DHT22;30858;51.108;8.068;2022-07-29T14:31:12;27.30;95.50
45096;DHT22;30858;51.108;8.068;2022-07-29T14:33:37;27.10;95.30
45096;DHT22;30858;51.108;8.068;2022-07-29T14:36:03;27.10;95.50
45096;DHT22;30858;51.108;8.068;2022-07-29T14:38:29;27.10;95.50
45096;DHT22;30858;51.108;8.068;2022-07-29T14:40:54;27.10;95.50
45096;DHT22;30858;51.108;8.068;2022-07-29T14:43:20;27.10;95.60
45096;DHT22;30858;51.108;8.068;2022-07-29T14:45:45;27.30;95.40
45096;DHT22;30858;51.108;8.068;2022-07-29T14:48:11;27.50;95.50
45096;DHT22;30858;51.108;8.068;2022-07-29T14:50:37;27.70;95.30
45096;DHT22;30858;51.108;8.068;2022-07-29T14:53:02;27.80;95.30
45096;DHT22;30858;51.108;8.068;2022-07-29T14:55:28;27.80;95.90
45096;DHT22;30858;51.108;8.068;2022-07-29T14:57:54;27.50;95.90
45096;DHT22;30858;51.108;8.068;2022-07-29T15:00:20;27.80;94.90
45096;DHT22;30858;51.108;8.068;2022-07-29T15:02:46;27.90;95.10
45096;DHT22;30858;51.108;8.068;2022-07-29T15:05:12;28.30;94.50
45096;DHT22;30858;51.108;8.068;2022-07-29T15:07:38;28.90;94.40
45096;DHT22;30858;51.108;8.068;2022-07-29T15:10:03;29.50;93.60
45096;DHT22;30858;51.108;8.068;2022-07-29T15:12:30;30.00;93.50
45096;DHT22;30858;51.108;8.068;2022-07-29T15:14:55;29.70;93.30
45096;DHT22;30858;51.108;8.068;2022-07-29T15:17:21;29.50;93.40
45096;DHT22;30858;51.108;8.068;2022-07-29T15:19:47;29.10;93.60
45096;DHT22;30858;51.108;8.068;2022-07-29T15:22:12;28.60;94.20
45096;DHT22;30858;51.108;8.068;2022-07-29T15:24:38;28.30;94.30
45096;DHT22;30858;51.108;8.068;2022-07-29T15:27:04;28.20;94.70
45096;DHT22;30858;51.108;8.068;2022-07-29T15:29:30;28.40;94.70
45096;DHT22;30858;51.108;8.068;2022-07-29T15:31:55;28.40;94.10
45096;DHT22;30858;51.108;8.068;2022-07-29T15:34:21;28.60;94.20
45096;DHT22;30858;51.108;8.068;2022-07-29T15:36:49;29.00;94.20
45096;DHT22;30858;51.108;8.068;2022-07-29T15:39:14;29.20;94.30
45096;DHT22;30858;51.108;8.068;2022-07-29T15:41:40;29.50;94.10
45096;DHT22;30858;51.108;8.068;2022-07-29T15:44:06;29.60;93.30
45096;DHT22;30858;51.108;8.068;2022-07-29T15:46:31;29.80;93.20
45096;DHT22;30858;51.108;8.068;2022-07-29T15:49:15;29.60;93.20
45096;DHT22;30858;51.108;8.068;2022-07-29T15:51:41;29.80;93.10
45096;DHT22;30858;51.108;8.068;2022-07-29T15:54:07;29.70;92.80
45096;DHT22;30858;51.108;8.068;2022-07-29T15:56:32;30.10;92.30
45096;DHT22;30858;51.108;8.068;2022-07-29T15:58:58;29.90;92.40
45096;DHT22;30858;51.108;8.068;2022-07-29T16:01:24;29.80;92.60
45096;DHT22;30858;51.108;8.068;2022-07-29T16:03:49;29.40;92.50
45096;DHT22;30858;51.108;8.068;2022-07-29T16:06:15;29.00;93.10
45096;DHT22;30858;51.108;8.068;2022-07-29T16:08:41;28.50;93.50
45096;DHT22;30858;51.108;8.068;2022-07-29T16:11:06;28.30;93.50
45096;DHT22;30858;51.108;8.068;2022-07-29T16:13:32;28.60;93.30
45096;DHT22;30858;51.108;8.068;2022-07-29T16:15:57;28.50;94.00
45096;DHT22;30858;51.108;8.068;2022-07-29T16:18:23;29.00;93.50
45096;DHT22;30858;51.108;8.068;2022-07-29T16:20:48;29.10;93.30